Time;durP1;ratioP1;P1;durP2;ratioP2;P2;SDS_P1;SDS_P2;PMS_P1;PMS_P2;Temp;Humidity;BMP_temperature;BMP_pressure;BME280_temperature;BME280_humidity;BME280_pressure;Samples;Min_cycle;Max_cycle;Signal;HPM_P1;HPM_P2
2024/01/11 00:00:48;;;;;;;3.23;2.70;;;4.60;99.90;;;;;;4992062;28;20675;-71
2024/01/11 00:03:16;;;;;;;2.60;2.40;;;4.50;99.90;;;;;;4984099;28;20319;-71
2024/01/11 00:05:43;;;;;;;2.47;2.00;;;4.50;99.90;;;;;;4984685;28;20219;-71
2024/01/11 00:08:12;;;;;;;2.43;2.20;;;4.50;99.90;;;;;;4980936;28;20204;-70
2024/01/11 00:10:39;;;;;;;2.77;2.57;;;4.50;99.90;;;;;;4984387;28;20211;-71
2024/01/11 00:13:06;;;;;;;2.60;2.40;;;4.60;99.90;;;;;;4975633;28;20256;-70
2024/01/11 00:15:33;;;;;;;2.80;2.50;;;4.60;99.90;;;;;;4974182;28;20224;-70
2024/01/11 00:18:00;;;;;;;3.20;2.70;;;4.60;99.90;;;;;;4987149;28;20314;-71
2024/01/11 00:20:29;;;;;;;2.43;1.90;;;4.60;99.90;;;;;;4976471;28;20196;-71
2024/01/11 00:22:56;;;;;;;2.43;2.23;;;4.60;99.90;;;;;;4972546;28;20193;-71
2024/01/11 00:25:23;;;;;;;2.70;2.40;;;4.60;99.90;;;;;;4956348;28;20300;-70
2024/01/11 00:27:50;;;;;;;2.30;2.10;;;4.60;99.90;;;;;;4976905;28;20228;-70
2024/01/11 00:30:17;;;;;;;2.10;2.00;;;4.60;99.90;;;;;;4978061;28;20228;-70
2024/01/11 00:32:44;;;;;;;2.00;1.90;;;4.60;99.90;;;;;;4965632;28;20785;-70
2024/01/11 00:35:11;;;;;;;2.10;2.00;;;4.70;99.90;;;;;;4977993;28;20327;-71
2024/01/11 00:37:40;;;;;;;1.90;1.80;;;4.60;99.90;;;;;;4961416;28;20633;-71
2024/01/11 00:40:08;;;;;;;2.20;2.00;;;4.70;99.90;;;;;;4971502;28;20202;-71
2024/01/11 00:42:35;;;;;;;1.70;1.60;;;4.70;99.90;;;;;;4989948;28;20195;-71
2024/01/11 00:45:02;;;;;;;2.20;2.00;;;4.70;99.90;;;;;;4975809;28;20227;-71
2024/01/11 00:47:29;;;;;;;1.93;1.83;;;4.70;99.90;;;;;;4987098;28;20266;-70
2024/01/11 00:49:56;;;;;;;1.80;1.70;;;4.70;99.90;;;;;;4977154;28;20224;-71
2024/01/11 00:52:23;;;;;;;1.60;1.50;;;4.70;99.90;;;;;;4986809;28;20235;-69
2024/01/11 00:54:52;;;;;;;2.30;2.20;;;4.80;99.90;;;;;;4984441;28;20199;-70
2024/01/11 00:57:19;;;;;;;2.27;2.10;;;4.80;99.90;;;;;;4965507;28;20716;-70
2024/01/11 00:59:46;;;;;;;2.30;2.10;;;4.80;99.90;;;;;;4958005;28;20204;-70
2024/01/11 01:02:13;;;;;;;1.80;1.70;;;4.80;99.90;;;;;;4983940;28;20219;-70
2024/01/11 01:04:40;;;;;;;1.80;1.70;;;4.80;99.90;;;;;;4976321;28;20228;-71
2024/01/11 01:07:08;;;;;;;2.20;2.10;;;4.80;99.90;;;;;;4963621;28;20326;-70
2024/01/11 01:09:35;;;;;;;2.10;2.00;;;4.80;99.90;;;;;;4964129;28;20216;-71
2024/01/11 01:12:04;;;;;;;2.30;1.60;;;4.80;99.90;;;;;;4967208;28;20236;-71
2024/01/11 01:14:31;;;;;;;2.00;1.80;;;4.80;99.90;;;;;;4963078;28;20275;-70
2024/01/11 01:16:58;;;;;;;2.23;2.13;;;4.80;99.90;;;;;;4979527;28;20259;-71
2024/01/11 01:19:25;;;;;;;2.20;2.10;;;4.80;99.90;;;;;;4979613;28;20193;-71
2024/01/11 01:21:52;;;;;;;2.47;1.90;;;4.80;99.90;;;;;;4974023;28;20275;-71
2024/01/11 01:24:19;;;;;;;1.70;1.60;;;4.80;99.90;;;;;;4965363;28;20208;-71
2024/01/11 01:26:46;;;;;;;2.10;1.87;;;4.80;99.90;;;;;;4975694;28;20596;-71
2024/01/11 01:29:15;;;;;;;3.40;1.80;;;4.80;99.90;;;;;;4979265;28;20207;-71
2024/01/11 01:31:42;;;;;;;1.73;1.63;;;4.80;99.90;;;;;;4982509;28;20193;-71
2024/01/11 01:34:09;;;;;;;2.40;1.90;;;4.80;99.90;;;;;;4953314;28;20599;-71
2024/01/11 01:36:36;;;;;;;2.03;1.60;;;4.80;99.90;;;;;;4979725;28;20201;-71
2024/01/11 01:39:04;;;;;;;2.47;2.13;;;4.90;99.90;;;;;;4975816;28;20197;-71
2024/01/11 01:41:30;;;;;;;1.77;1.67;;;4.90;99.90;;;;;;4978187;28;21049;-71
2024/01/11 01:43:57;;;;;;;3.30;2.03;;;4.90;99.90;;;;;;4972534;28;20196;-72
2024/01/11 01:46:27;;;;;;;2.33;2.00;;;4.90;99.90;;;;;;4965101;28;20667;-70
2024/01/11 01:48:55;;;;;;;3.20;2.00;;;4.90;99.90;;;;;;4965521;28;20211;-71
2024/01/11 01:51:23;;;;;;;1.87;1.50;;;4.90;99.90;;;;;;4979942;28;20268;-71
2024/01/11 01:53:51;;;;;;;2.00;1.57;;;4.90;99.90;;;;;;4965873;28;20234;-71
2024/01/11 01:56:19;;;;;;;2.77;1.50;;;4.90;99.90;;;;;;4972182;28;20220;-71
2024/01/11 01:58:47;;;;;;;1.90;1.80;;;4.90;99.90;;;;;;4986966;28;20395;-71
2024/01/11 02:01:15;;;;;;;2.57;1.50;;;4.90;99.90;;;;;;4973088;28;20192;-71
2024/01/11 02:03:44;;;;;;;1.73;1.60;;;4.90;99.90;;;;;;4982717;28;20326;-71
2024/01/11 02:06:11;;;;;;;2.50;1.60;;;4.90;99.90;;;;;;4974052;28;20196;-71
2024/01/11 02:08:40;;;;;;;3.57;1.80;;;4.90;99.90;;;;;;4982764;28;20231;-71
2024/01/11 02:11:08;;;;;;;1.90;1.80;;;4.90;99.90;;;;;;4972881;28;20279;-71
2024/01/11 02:13:36;;;;;;;2.57;1.70;;;4.90;99.90;;;;;;4974383;28;20302;-72
2024/01/11 02:16:03;;;;;;;3.17;2.10;;;4.90;99.90;;;;;;4977752;28;20298;-72
2024/01/11 02:18:30;;;;;;;2.07;1.60;;;4.90;99.90;;;;;;4982491;28;20204;-72
2024/01/11 02:20:58;;;;;;;2.43;1.40;;;4.90;99.90;;;;;;4978318;28;20265;-71
2024/01/11 02:23:27;;;;;;;1.43;1.33;;;4.90;99.90;;;;;;4975355;28;20195;-72
2024/01/11 02:25:55;;;;;;;3.00;1.80;;;4.90;99.90;;;;;;4976247;28;20196;-71
2024/01/11 02:28:22;;;;;;;1.67;1.50;;;4.80;99.90;;;;;;4954815;28;20287;-72
2024/01/11 02:30:50;;;;;;;1.87;1.67;;;4.80;99.90;;;;;;4976244;28;20204;-71
2024/01/11 02:33:18;;;;;;;2.17;1.40;;;4.90;99.90;;;;;;4985240;28;20219;-71
2024/01/11 02:35:45;;;;;;;1.60;1.50;;;4.90;99.90;;;;;;4986085;28;20228;-71
2024/01/11 02:38:12;;;;;;;1.80;1.70;;;4.90;99.90;;;;;;4980962;28;20607;-71
2024/01/11 02:40:41;;;;;;;3.43;1.63;;;4.80;99.90;;;;;;4975129;28;20672;-70
2024/01/11 02:43:12;;;;;;;1.40;1.30;;;4.80;99.90;;;;;;4977472;28;20553;-71
2024/01/11 02:45:39;;;;;;;2.00;1.80;;;4.80;99.90;;;;;;4989406;28;20282;-71
2024/01/11 02:48:07;;;;;;;3.70;1.97;;;4.80;99.90;;;;;;4966604;28;20290;-71
2024/01/11 02:50:34;;;;;;;1.67;1.57;;;4.80;99.90;;;;;;4979911;28;20283;-71
2024/01/11 02:53:01;;;;;;;3.07;1.87;;;4.80;99.90;;;;;;4983499;28;20247;-71
2024/01/11 02:55:28;;;;;;;1.83;1.50;;;4.70;99.90;;;;;;4989590;28;20202;-71
2024/01/11 02:57:55;;;;;;;1.60;1.40;;;4.70;99.90;;;;;;4984742;28;20227;-71
2024/01/11 03:00:23;;;;;;;2.37;1.90;;;4.80;99.90;;;;;;4984064;28;20203;-70
2024/01/11 03:02:50;;;;;;;1.70;1.60;;;4.80;99.90;;;;;;4976899;28;20228;-72
2024/01/11 03:05:18;;;;;;;2.33;1.50;;;4.80;99.90;;;;;;4975993;28;20231;-70
2024/01/11 03:07:45;;;;;;;1.70;1.50;;;4.80;99.90;;;;;;4993833;28;20825;-71
2024/01/11 03:10:12;;;;;;;2.27;1.70;;;4.70;99.90;;;;;;4993625;28;20250;-70
2024/01/11 03:12:41;;;;;;;2.23;1.80;;;4.80;99.90;;;;;;4993583;28;20220;-70
2024/01/11 03:15:09;;;;;;;2.03;1.50;;;4.80;99.90;;;;;;4994278;28;20200;-71
2024/01/11 03:17:37;;;;;;;2.23;1.30;;;4.80;99.90;;;;;;4994065;28;20238;-71
2024/01/11 03:20:05;;;;;;;1.63;1.53;;;4.80;99.90;;;;;;4993688;28;20227;-71
2024/01/11 03:22:32;;;;;;;2.70;1.60;;;4.80;99.90;;;;;;4988805;28;20207;-71
2024/01/11 03:24:59;;;;;;;1.93;1.40;;;4.80;99.90;;;;;;4992994;28;20746;-71
2024/01/11 03:27:26;;;;;;;1.80;1.63;;;4.80;99.90;;;;;;4980673;28;21084;-70
2024/01/11 03:29:53;;;;;;;3.07;1.50;;;4.80;99.90;;;;;;4994338;28;20216;-71
2024/01/11 03:32:20;;;;;;;4.40;2.10;;;4.80;99.90;;;;;;4993217;28;20203;-71
2024/01/11 03:34:48;;;;;;;2.50;2.30;;;4.70;99.90;;;;;;4993012;28;20283;-70
2024/01/11 03:37:16;;;;;;;3.13;1.90;;;4.70;99.90;;;;;;4993389;28;20286;-70
2024/01/11 03:39:43;;;;;;;2.67;2.13;;;4.70;99.90;;;;;;4993864;28;20195;-70
2024/01/11 03:42:10;;;;;;;3.97;1.80;;;4.70;99.90;;;;;;4992523;28;20274;-70
2024/01/11 03:44:38;;;;;;;2.23;1.60;;;4.70;99.90;;;;;;5000560;28;20286;-70
2024/01/11 03:47:05;;;;;;;2.17;1.60;;;4.80;99.90;;;;;;4998267;28;20210;-69
2024/01/11 03:49:32;;;;;;;5.27;2.00;;;4.80;99.90;;;;;;4992094;28;20394;-70
2024/01/11 03:52:00;;;;;;;2.33;1.90;;;4.70;99.90;;;;;;4991368;28;20200;-71
2024/01/11 03:54:27;;;;;;;3.47;1.90;;;4.80;99.90;;;;;;4975327;28;20262;-70
2024/01/11 03:56:54;;;;;;;1.90;1.70;;;4.70;99.90;;;;;;4992731;28;20192;-71
2024/01/11 03:59:21;;;;;;;2.63;1.60;;;4.80;99.90;;;;;;4993075;28;20290;-70
2024/01/11 04:01:48;;;;;;;2.33;1.80;;;4.80;99.90;;;;;;4993040;28;20202;-70
2024/01/11 04:04:15;;;;;;;4.63;1.73;;;4.70;99.90;;;;;;4984418;28;20628;-70
2024/01/11 04:06:42;;;;;;;1.57;1.43;;;4.70;99.90;;;;;;4980585;28;20224;-71
2024/01/11 04:09:11;;;;;;;4.23;1.80;;;4.80;99.90;;;;;;4965037;28;20208;-71
2024/01/11 04:11:38;;;;;;;2.27;1.60;;;4.70;99.90;;;;;;4979910;28;20224;-71
2024/01/11 04:14:06;;;;;;;2.03;1.80;;;4.70;99.90;;;;;;4978686;28;20272;-71
2024/01/11 04:16:33;;;;;;;2.07;1.87;;;4.70;99.90;;;;;;4974497;28;20569;-71
2024/01/11 04:19:02;;;;;;;2.03;1.83;;;4.80;99.90;;;;;;4973269;28;20276;-71
2024/01/11 04:21:30;;;;;;;2.57;1.60;;;4.80;99.90;;;;;;4975195;28;20614;-71
2024/01/11 04:23:57;;;;;;;4.13;2.10;;;4.80;99.90;;;;;;4976788;28;20219;-71
2024/01/11 04:26:25;;;;;;;2.13;1.80;;;4.80;99.90;;;;;;4961874;28;20259;-71
2024/01/11 04:28:53;;;;;;;2.37;2.10;;;4.80;99.90;;;;;;4969830;28;20188;-71
2024/01/11 04:31:20;;;;;;;3.27;1.93;;;4.80;99.90;;;;;;4978141;28;20200;-70
2024/01/11 04:33:47;;;;;;;1.90;1.80;;;4.80;99.90;;;;;;4973246;28;20304;-71
2024/01/11 04:36:14;;;;;;;4.37;2.30;;;4.80;99.90;;;;;;4951552;28;20258;-71
2024/01/11 04:38:41;;;;;;;5.93;1.90;;;4.70;99.90;;;;;;4949405;28;20286;-70
2024/01/11 04:41:09;;;;;;;1.83;1.53;;;4.80;99.90;;;;;;4968631;28;20671;-70
2024/01/11 04:43:39;;;;;;;1.73;1.63;;;4.70;99.90;;;;;;4972634;28;20266;-70
2024/01/11 04:46:15;;;;;;;3.60;2.33;;;4.80;99.90;;;;;;4963121;28;20242;-71
2024/01/11 04:48:42;;;;;;;2.20;2.00;;;4.80;99.90;;;;;;4976615;28;20204;-70
2024/01/11 04:51:09;;;;;;;3.33;1.90;;;4.70;99.90;;;;;;4979284;28;20282;-70
2024/01/11 04:53:39;;;;;;;4.33;2.40;;;4.70;99.90;;;;;;4973898;28;20216;-71
2024/01/11 04:56:07;;;;;;;4.97;2.30;;;4.70;99.90;;;;;;4957278;28;20578;-71
2024/01/11 04:58:34;;;;;;;1.87;1.70;;;4.70;99.90;;;;;;4971729;28;20652;-70
2024/01/11 05:01:02;;;;;;;2.50;1.80;;;4.80;99.90;;;;;;4972827;28;20208;-69
2024/01/11 05:03:30;;;;;;;2.80;2.10;;;4.80;99.90;;;;;;4978593;28;20315;-70
2024/01/11 05:05:57;;;;;;;3.10;2.10;;;4.80;99.90;;;;;;4991273;28;20291;-70
2024/01/11 05:08:24;;;;;;;1.97;1.83;;;4.80;99.90;;;;;;4991660;28;20254;-71
2024/01/11 05:10:51;;;;;;;1.93;1.77;;;4.80;99.90;;;;;;4990982;28;20223;-71
2024/01/11 05:13:18;;;;;;;2.13;1.47;;;4.80;99.90;;;;;;4991596;28;20582;-70
2024/01/11 05:15:46;;;;;;;3.70;2.07;;;4.80;99.90;;;;;;4990702;28;20211;-68
2024/01/11 05:18:14;;;;;;;3.93;2.10;;;4.80;99.90;;;;;;4991304;28;20595;-70
2024/01/11 05:20:41;;;;;;;2.30;1.83;;;4.90;99.90;;;;;;4992320;28;20590;-71
2024/01/11 05:23:09;;;;;;;3.43;2.30;;;4.90;99.90;;;;;;4990341;28;20238;-71
2024/01/11 05:25:36;;;;;;;2.30;1.73;;;4.90;99.90;;;;;;4990265;28;20203;-71
2024/01/11 05:28:04;;;;;;;2.00;1.67;;;4.90;99.90;;;;;;4991570;28;20200;-71
2024/01/11 05:30:31;;;;;;;2.27;1.40;;;4.90;99.90;;;;;;4973772;28;20545;-71
2024/01/11 05:32:58;;;;;;;1.50;1.40;;;4.90;99.90;;;;;;4968632;28;20199;-71
2024/01/11 05:35:28;;;;;;;1.63;1.53;;;4.90;99.90;;;;;;4989184;28;20241;-71
2024/01/11 05:37:55;;;;;;;1.40;1.30;;;5.00;99.90;;;;;;4989368;28;20192;-71
2024/01/11 05:40:22;;;;;;;1.20;1.10;;;5.00;99.90;;;;;;4990948;28;20582;-70
2024/01/11 05:42:49;;;;;;;1.73;1.20;;;5.00;99.90;;;;;;4990892;28;20236;-71
2024/01/11 05:45:17;;;;;;;1.60;1.20;;;5.10;99.90;;;;;;4991422;28;20263;-71
2024/01/11 05:47:45;;;;;;;1.70;1.60;;;5.10;99.90;;;;;;4991155;28;20216;-72
2024/01/11 05:50:12;;;;;;;5.23;1.87;;;5.10;99.90;;;;;;4991282;28;20291;-71
2024/01/11 05:52:43;;;;;;;2.27;2.07;;;5.10;99.90;;;;;;4990860;28;20656;-71
2024/01/11 05:55:10;;;;;;;3.90;2.07;;;5.20;99.90;;;;;;4990204;28;20214;-71
2024/01/11 05:57:37;;;;;;;1.57;1.47;;;5.20;99.90;;;;;;4990827;28;20203;-71
2024/01/11 06:00:05;;;;;;;4.47;2.03;;;5.20;99.90;;;;;;4991289;28;20200;-71
2024/01/11 06:02:33;;;;;;;3.83;2.07;;;5.20;99.90;;;;;;4991017;28;20247;-70
2024/01/11 06:05:00;;;;;;;1.93;1.60;;;5.20;99.90;;;;;;4975412;28;20611;-71
2024/01/11 06:07:28;;;;;;;2.90;1.77;;;5.20;99.90;;;;;;4977081;28;20722;-71
2024/01/11 06:09:56;;;;;;;2.33;1.73;;;5.10;99.90;;;;;;4994172;28;20204;-71
2024/01/11 06:12:23;;;;;;;1.70;1.60;;;5.20;99.90;;;;;;4994642;28;20288;-71
2024/01/11 06:14:50;;;;;;;1.63;1.53;;;5.10;99.90;;;;;;4992784;28;20381;-71
2024/01/11 06:17:17;;;;;;;2.10;1.60;;;5.10;99.90;;;;;;4979797;28;20245;-71
2024/01/11 06:19:44;;;;;;;3.37;1.60;;;5.20;99.90;;;;;;4996380;28;20565;-71
2024/01/11 06:22:11;;;;;;;5.17;1.90;;;5.10;99.90;;;;;;4992629;28;20227;-71
2024/01/11 06:24:38;;;;;;;3.23;1.90;;;5.10;99.90;;;;;;4991052;28;20216;-71
2024/01/11 06:27:07;;;;;;;1.50;1.40;;;5.10;99.90;;;;;;4992437;28;20229;-71
2024/01/11 06:29:34;;;;;;;1.67;1.47;;;5.10;99.90;;;;;;4992872;28;20223;-71
2024/01/11 06:32:01;;;;;;;3.00;1.87;;;5.10;99.90;;;;;;4995060;28;20204;-71
2024/01/11 06:34:28;;;;;;;1.90;1.57;;;5.10;99.90;;;;;;4993767;28;20220;-71
2024/01/11 06:36:55;;;;;;;1.23;1.20;;;5.10;99.90;;;;;;4977759;28;20211;-70
2024/01/11 06:39:22;;;;;;;2.50;1.47;;;5.10;99.90;;;;;;4993768;28;20291;-71
2024/01/11 06:41:49;;;;;;;1.30;1.20;;;5.10;99.90;;;;;;4994221;28;20231;-71
2024/01/11 06:44:18;;;;;;;2.97;1.70;;;5.10;99.90;;;;;;4994643;28;20283;-70
2024/01/11 06:46:45;;;;;;;2.60;1.87;;;5.10;99.90;;;;;;4994369;28;20553;-71
2024/01/11 06:49:13;;;;;;;2.07;1.60;;;5.10;99.90;;;;;;4994135;28;20620;-70
2024/01/11 06:51:40;;;;;;;3.20;1.73;;;5.10;99.90;;;;;;4994205;28;20200;-72
2024/01/11 06:54:08;;;;;;;1.80;1.70;;;5.10;99.90;;;;;;4993179;28;20225;-70
2024/01/11 06:56:35;;;;;;;3.20;1.77;;;5.00;99.90;;;;;;4976312;28;20205;-70
2024/01/11 06:59:03;;;;;;;1.97;1.60;;;5.10;99.90;;;;;;4993162;28;20675;-71
2024/01/11 07:01:31;;;;;;;4.33;1.80;;;5.00;99.90;;;;;;4992434;28;20200;-71
2024/01/11 07:03:58;;;;;;;3.00;1.80;;;5.00;99.90;;;;;;4993236;28;20235;-70
2024/01/11 07:06:25;;;;;;;3.03;1.80;;;5.00;99.90;;;;;;4976493;28;20199;-71
2024/01/11 07:08:52;;;;;;;3.23;1.90;;;5.00;99.90;;;;;;4990777;28;20291;-71
2024/01/11 07:11:20;;;;;;;3.00;1.97;;;5.00;99.90;;;;;;4985170;28;20192;-70
2024/01/11 07:13:47;;;;;;;2.07;1.60;;;5.00;99.90;;;;;;4984492;28;20691;-70
2024/01/11 07:16:14;;;;;;;1.83;1.70;;;5.00;99.90;;;;;;4988346;28;20231;-71
2024/01/11 07:18:42;;;;;;;2.10;1.57;;;5.00;99.90;;;;;;4986594;28;20764;-71
2024/01/11 07:21:09;;;;;;;4.20;1.70;;;5.00;99.90;;;;;;4987236;28;20311;-71
2024/01/11 07:23:36;;;;;;;3.20;1.90;;;5.00;99.90;;;;;;4991120;28;20196;-71
2024/01/11 07:26:03;;;;;;;5.43;2.03;;;5.00;99.90;;;;;;4989782;28;20235;-71
2024/01/11 07:28:30;;;;;;;2.53;1.83;;;5.00;99.90;;;;;;4993015;28;20199;-71
2024/01/11 07:30:58;;;;;;;2.60;1.80;;;5.00;99.90;;;;;;4988678;28;20615;-70
2024/01/11 07:33:25;;;;;;;3.73;1.90;;;5.00;99.90;;;;;;4993260;28;20283;-70
2024/01/11 07:35:53;;;;;;;3.90;2.47;;;5.00;99.90;;;;;;4992823;28;20220;-71
2024/01/11 07:38:20;;;;;;;2.87;2.07;;;5.00;99.90;;;;;;4994341;28;20256;-71
2024/01/11 07:40:47;;;;;;;4.87;1.90;;;5.00;99.90;;;;;;4990265;28;20224;-71
2024/01/11 07:43:15;;;;;;;4.67;2.03;;;5.00;99.90;;;;;;4989493;28;20204;-70
2024/01/11 07:45:42;;;;;;;3.77;1.80;;;5.00;99.90;;;;;;4984727;28;20231;-70
2024/01/11 07:48:09;;;;;;;3.90;2.07;;;5.00;99.90;;;;;;4981449;28;20212;-70
2024/01/11 07:50:36;;;;;;;3.27;2.07;;;5.00;99.90;;;;;;4989258;28;20254;-70
2024/01/11 07:53:05;;;;;;;2.33;1.93;;;5.00;99.90;;;;;;4978870;28;20303;-70
2024/01/11 07:55:32;;;;;;;3.37;2.20;;;5.10;99.90;;;;;;4988649;28;20239;-70
2024/01/11 07:57:59;;;;;;;5.20;2.37;;;5.00;99.90;;;;;;4972435;28;20238;-70
2024/01/11 08:00:26;;;;;;;2.57;2.17;;;5.00;99.90;;;;;;4989285;28;20592;-70
2024/01/11 08:02:54;;;;;;;2.47;1.70;;;5.10;99.90;;;;;;4972009;28;20255;-70
2024/01/11 08:05:21;;;;;;;6.60;2.03;;;5.10;99.90;;;;;;4996353;28;20740;-70
2024/01/11 08:07:48;;;;;;;6.03;2.20;;;5.10;99.90;;;;;;4967336;28;20228;-70
2024/01/11 08:10:17;;;;;;;2.13;1.93;;;5.10;99.90;;;;;;4995654;28;20199;-70
2024/01/11 08:12:44;;;;;;;3.17;1.60;;;5.20;99.90;;;;;;4988991;28;20243;-70
2024/01/11 08:15:12;;;;;;;2.17;1.50;;;5.20;99.90;;;;;;4979438;28;20212;-70
2024/01/11 08:17:58;;;;;;;3.37;2.30;;;5.20;99.90;;;;;;4989750;28;20200;-70
2024/01/11 08:20:27;;;;;;;2.63;1.90;;;5.20;99.90;;;;;;4989589;28;20186;-70
2024/01/11 08:22:54;;;;;;;3.57;2.30;;;5.20;99.90;;;;;;4988639;28;20200;-70
2024/01/11 08:25:23;;;;;;;4.13;2.03;;;5.20;99.90;;;;;;4991653;28;20207;-70
2024/01/11 08:27:50;;;;;;;2.43;2.23;;;5.20;99.90;;;;;;4989201;28;20203;-71
2024/01/11 08:30:17;;;;;;;3.87;2.10;;;5.30;99.90;;;;;;4989597;28;20231;-71
2024/01/11 08:32:44;;;;;;;2.13;1.90;;;5.30;99.90;;;;;;4989462;28;20210;-70
2024/01/11 08:35:12;;;;;;;3.77;2.00;;;5.30;99.90;;;;;;4993723;28;20231;-71
2024/01/11 08:37:39;;;;;;;5.57;2.37;;;5.40;99.90;;;;;;4989043;28;20196;-70
2024/01/11 08:40:09;;;;;;;2.73;1.83;;;5.40;99.90;;;;;;4971295;28;20557;-70
2024/01/11 08:42:37;;;;;;;2.20;2.00;;;5.40;99.90;;;;;;4980868;28;20200;-70
2024/01/11 08:45:07;;;;;;;4.60;2.00;;;5.50;99.90;;;;;;4989127;28;20220;-70
2024/01/11 08:47:34;;;;;;;3.40;1.90;;;5.50;99.90;;;;;;4984879;28;20193;-70
2024/01/11 08:50:05;;;;;;;2.80;2.07;;;5.50;99.90;;;;;;4988356;28;20614;-70
2024/01/11 08:52:33;;;;;;;2.83;1.97;;;5.60;99.90;;;;;;4987727;28;20275;-70
2024/01/11 08:55:00;;;;;;;2.63;1.77;;;5.60;99.90;;;;;;4987610;28;20226;-70
2024/01/11 08:57:27;;;;;;;1.67;1.57;;;5.60;99.90;;;;;;4988098;28;20203;-70
2024/01/11 08:59:55;;;;;;;3.47;1.83;;;5.70;99.90;;;;;;4989019;28;20201;-70
2024/01/11 09:02:25;;;;;;;3.40;1.93;;;5.70;99.90;;;;;;4986992;28;20193;-70
2024/01/11 09:04:52;;;;;;;2.13;1.70;;;5.80;99.90;;;;;;4985777;28;20816;-70
2024/01/11 09:07:20;;;;;;;5.00;1.90;;;5.80;99.90;;;;;;4994744;28;20225;-70
2024/01/11 09:09:47;;;;;;;4.63;2.07;;;5.80;99.90;;;;;;4971355;28;20662;-71
2024/01/11 09:12:14;;;;;;;2.90;1.67;;;5.80;99.90;;;;;;4969218;28;20207;-71
2024/01/11 09:14:42;;;;;;;6.90;2.33;;;5.90;99.90;;;;;;4987980;28;20245;-70
2024/01/11 09:17:11;;;;;;;3.23;2.37;;;5.90;99.90;;;;;;4969105;28;20208;-71
2024/01/11 09:19:41;;;;;;;2.00;1.80;;;6.00;99.90;;;;;;4972203;28;20202;-71
2024/01/11 09:22:09;;;;;;;2.43;1.70;;;6.20;99.90;;;;;;4987537;28;20213;-70
2024/01/11 09:24:36;;;;;;;5.73;1.97;;;6.60;99.90;;;;;;4986153;28;20296;-70
2024/01/11 09:27:04;;;;;;;2.20;1.60;;;6.70;99.90;;;;;;4988834;28;20200;-70
2024/01/11 09:29:31;;;;;;;4.07;2.27;;;7.00;99.90;;;;;;4971114;28;20201;-71
2024/01/11 09:31:58;;;;;;;3.37;2.07;;;7.80;99.90;;;;;;4987951;28;20284;-71
2024/01/11 09:34:26;;;;;;;4.13;1.93;;;8.20;99.90;;;;;;4967378;28;20199;-70
2024/01/11 09:36:53;;;;;;;6.73;2.00;;;8.50;99.90;;;;;;4970082;28;20711;-71
2024/01/11 09:39:20;;;;;;;6.77;2.20;;;8.70;99.90;;;;;;4988329;28;20257;-71
2024/01/11 09:41:58;;;;;;;2.60;2.00;;;8.80;99.90;;;;;;4964464;28;20191;-70
2024/01/11 09:44:27;;;;;;;1.90;1.70;;;8.70;99.90;;;;;;4988603;28;20655;-70
2024/01/11 09:46:55;;;;;;;2.97;1.50;;;8.60;99.90;;;;;;4971377;28;20536;-70
2024/01/11 09:49:24;;;;;;;2.87;1.73;;;8.60;99.90;;;;;;4988074;28;20188;-71
2024/01/11 09:51:56;;;;;;;2.13;1.77;;;8.60;99.90;;;;;;4986912;28;20524;-70
2024/01/11 09:54:26;;;;;;;1.77;1.50;;;8.50;99.90;;;;;;4988119;28;20707;-71
2024/01/11 09:56:54;;;;;;;2.60;1.50;;;8.50;99.90;;;;;;4983357;28;20207;-69
2024/01/11 09:59:23;;;;;;;1.67;1.40;;;8.50;99.90;;;;;;4994049;28;20270;-71
2024/01/11 10:01:50;;;;;;;3.20;2.03;;;8.70;99.90;;;;;;4989642;28;20204;-70
2024/01/11 10:04:17;;;;;;;2.27;1.90;;;8.80;99.90;;;;;;4984957;28;20527;-71
2024/01/11 10:06:45;;;;;;;4.23;2.00;;;8.60;99.90;;;;;;4952056;28;20266;-71
2024/01/11 10:09:16;;;;;;;2.80;1.57;;;8.40;99.90;;;;;;4968572;28;20196;-71
2024/01/11 10:11:44;;;;;;;2.63;1.80;;;8.30;99.90;;;;;;4977478;28;20226;-70
2024/01/11 10:14:13;;;;;;;3.40;2.20;;;8.10;99.90;;;;;;4975939;28;20616;-71
2024/01/11 10:16:42;;;;;;;2.53;1.83;;;8.00;99.90;;;;;;4952856;28;20215;-71
2024/01/11 10:19:09;;;;;;;4.70;2.07;;;7.80;99.90;;;;;;4974874;28;20295;-71
2024/01/11 10:21:40;;;;;;;2.63;1.90;;;7.70;99.90;;;;;;4955176;28;20215;-70
2024/01/11 10:24:10;;;;;;;3.37;1.70;;;7.60;99.90;;;;;;4969018;28;20308;-70
2024/01/11 10:26:38;;;;;;;2.63;1.90;;;7.50;99.90;;;;;;4982385;28;20200;-71
2024/01/11 10:29:10;;;;;;;3.07;1.93;;;7.40;99.90;;;;;;4977464;28;20196;-71
2024/01/11 10:31:37;;;;;;;2.03;1.50;;;7.30;99.90;;;;;;4979681;28;20656;-71
2024/01/11 10:34:06;;;;;;;2.03;1.80;;;7.30;99.90;;;;;;4970380;28;20295;-70
2024/01/11 10:36:33;;;;;;;1.40;1.30;;;7.20;99.90;;;;;;4977349;28;20217;-71
2024/01/11 10:39:04;;;;;;;1.43;1.30;;;7.10;99.90;;;;;;4972495;28;20287;-71
2024/01/11 10:41:37;;;;;;;2.90;1.53;;;7.00;99.90;;;;;;4973797;28;20205;-71
2024/01/11 10:44:11;;;;;;;2.23;1.40;;;7.00;99.90;;;;;;4969885;28;20227;-71
2024/01/11 10:46:39;;;;;;;2.47;1.60;;;7.00;99.90;;;;;;4969320;28;20199;-70
2024/01/11 10:49:08;;;;;;;2.77;1.63;;;6.90;99.90;;;;;;4944254;28;20189;-70
2024/01/11 10:51:36;;;;;;;2.00;1.63;;;6.90;99.90;;;;;;4974749;28;20211;-71
2024/01/11 10:54:04;;;;;;;1.80;1.67;;;6.90;99.90;;;;;;4985739;28;20621;-71
2024/01/11 10:56:33;;;;;;;4.60;1.63;;;6.90;99.90;;;;;;4978302;28;20237;-71
2024/01/11 10:59:02;;;;;;;2.90;1.50;;;6.90;99.90;;;;;;4977395;28;20644;-70
2024/01/11 11:01:31;;;;;;;2.33;1.50;;;6.90;99.90;;;;;;4972538;28;20213;-70
2024/01/11 11:03:59;;;;;;;2.90;1.70;;;6.90;99.90;;;;;;4983505;28;20228;-71
2024/01/11 11:06:28;;;;;;;2.50;1.53;;;6.80;99.90;;;;;;4989149;28;20264;-71
2024/01/11 11:08:56;;;;;;;2.07;1.50;;;6.80;99.90;;;;;;4991440;28;20199;-70
2024/01/11 11:11:23;;;;;;;2.70;1.40;;;6.80;99.90;;;;;;4991518;28;20551;-70
2024/01/11 11:13:52;;;;;;;2.37;1.30;;;6.80;99.90;;;;;;4988839;28;20213;-70
2024/01/11 11:16:19;;;;;;;3.40;1.53;;;6.80;99.90;;;;;;4991848;28;20332;-70
2024/01/11 11:18:48;;;;;;;3.03;1.60;;;6.70;99.90;;;;;;4992835;28;20652;-70
2024/01/11 11:21:16;;;;;;;2.77;2.10;;;6.80;99.90;;;;;;4991865;28;20282;-70
2024/01/11 11:23:46;;;;;;;1.90;1.60;;;6.80;99.90;;;;;;4992190;28;20203;-71
2024/01/11 11:26:17;;;;;;;3.43;1.97;;;6.70;99.90;;;;;;4991364;28;20247;-71
2024/01/11 11:28:44;;;;;;;2.40;1.70;;;6.80;99.90;;;;;;4992574;28;20207;-71
2024/01/11 11:31:12;;;;;;;1.80;1.50;;;6.80;99.90;;;;;;4988793;28;20200;-69
2024/01/11 11:33:39;;;;;;;3.37;1.70;;;6.70;99.90;;;;;;4992952;28;20627;-69
2024/01/11 11:36:13;;;;;;;2.80;1.80;;;6.70;99.90;;;;;;4996666;28;20279;-70
2024/01/11 11:38:41;;;;;;;5.90;1.70;;;6.70;99.90;;;;;;4973337;28;20320;-70
2024/01/11 11:41:08;;;;;;;2.40;1.70;;;6.70;99.90;;;;;;4973047;28;20262;-70
2024/01/11 11:43:36;;;;;;;5.60;2.10;;;6.70;99.90;;;;;;4975122;28;20211;-70
2024/01/11 11:46:07;;;;;;;4.93;2.00;;;6.70;99.90;;;;;;4989431;28;20199;-70
2024/01/11 11:48:54;;;;;;;5.17;1.83;;;6.70;99.90;;;;;;4981163;28;20241;-70
2024/01/11 11:51:24;;;;;;;2.20;1.57;;;6.70;99.90;;;;;;4990864;28;21053;-70
2024/01/11 11:53:53;;;;;;;1.70;1.30;;;6.70;99.90;;;;;;4980548;28;20740;-69
2024/01/11 11:56:21;;;;;;;1.60;1.50;;;6.70;99.90;;;;;;4991246;28;20215;-70
2024/01/11 11:58:52;;;;;;;3.20;1.53;;;6.80;99.90;;;;;;4992016;28;20227;-70
2024/01/11 12:01:19;;;;;;;4.63;1.53;;;7.00;99.90;;;;;;4991226;28;20191;-70
2024/01/11 12:03:49;;;;;;;2.73;1.50;;;7.10;99.90;;;;;;4988493;28;20594;-70
2024/01/11 12:06:17;;;;;;;2.77;1.83;;;7.20;99.90;;;;;;4970835;28;20204;-70
2024/01/11 12:08:47;;;;;;;1.37;1.13;;;7.20;99.90;;;;;;4951278;28;20228;-71
2024/01/11 12:11:15;;;;;;;1.77;1.60;;;7.20;99.90;;;;;;4982350;28;20200;-70
2024/01/11 12:13:44;;;;;;;2.80;1.77;;;7.20;99.90;;;;;;4952493;28;20311;-70
2024/01/11 12:16:12;;;;;;;1.60;1.50;;;7.20;99.90;;;;;;4987059;28;20250;-70
2024/01/11 12:18:39;;;;;;;1.67;1.30;;;7.10;99.90;;;;;;4974258;28;20561;-70
2024/01/11 12:21:07;;;;;;;1.50;1.40;;;7.10;99.90;;;;;;4986639;28;20192;-70
2024/01/11 12:23:35;;;;;;;2.77;1.47;;;7.00;99.90;;;;;;4974860;28;20204;-71
2024/01/11 12:26:05;;;;;;;1.83;1.70;;;7.00;99.90;;;;;;4985662;28;20218;-70
2024/01/11 12:28:33;;;;;;;1.93;1.57;;;7.00;99.90;;;;;;4953496;28;20208;-70
2024/01/11 12:31:00;;;;;;;2.20;1.80;;;7.00;99.90;;;;;;4961111;28;20205;-70
2024/01/11 12:33:28;;;;;;;10.37;1.70;;;7.00;99.90;;;;;;4966739;28;20622;-70
2024/01/11 12:35:55;;;;;;;1.40;1.30;;;7.00;99.90;;;;;;4964171;28;20212;-70
2024/01/11 12:38:22;;;;;;;1.77;1.30;;;7.00;99.90;;;;;;4962461;28;20228;-70
2024/01/11 12:40:49;;;;;;;2.57;1.37;;;6.90;99.90;;;;;;4947120;28;20198;-70
2024/01/11 12:43:18;;;;;;;1.07;1.07;;;6.90;99.90;;;;;;4967702;28;20226;-71
2024/01/11 12:45:45;;;;;;;1.97;1.40;;;6.90;99.90;;;;;;4956566;28;20220;-70
2024/01/11 12:48:16;;;;;;;1.37;1.17;;;6.90;99.90;;;;;;4958301;28;20203;-71
2024/01/11 12:50:43;;;;;;;1.47;1.00;;;6.80;99.90;;;;;;4962753;28;20204;-70
2024/01/11 12:53:18;;;;;;;4.77;1.60;;;6.80;99.90;;;;;;4981296;28;20199;-70
2024/01/11 12:55:45;;;;;;;3.60;2.67;;;6.80;99.90;;;;;;4980546;28;20492;-71
2024/01/11 12:58:13;;;;;;;6.27;3.10;;;6.80;99.90;;;;;;4963565;28;20203;-71
2024/01/11 13:00:41;;;;;;;4.47;2.07;;;6.80;99.90;;;;;;4980184;28;20214;-71